Loreto, Mexico

8:37 AM MDT on June 03, 2015 (GMT -0600)
El Jaral | | Change Station
CLOSE
Current Station
Personal Weather Station
Location: Loreto, BAJA CALIFORNIA SUR
Elevation: 50 ft
Nearby Weather Stations

Elev 50 ft 26.02 °N, 111.35 °W | Updated 2 minutes ago

Clear
Clear
86.0 °F
Feels Like 92 °F
N
0.0
Wind Variable Wind from ENE
Gusts 4.0 mph

Today
High -- | Low -- °F
--% Chance of Precip.
Yesterday
High -- | Low -- °F
Precip. -- in
6:33 AM 8:14 PM
Full, 99% visible
Pressure 29.78 in
Visibility 8.0 miles
Clouds Clear
Heat Index 92 °F
Dew Point 72 °F
Humidity 63%
Rainfall 0.00 in
Snow Depth Not available.
UV 0 out of 12
Pollen Not available.
Air Quality Not available.
Flu Activity Not available.
METAR MMLT 031247Z 00000KT 8SM SKC 29/19 A2978 RMK RTS

More Conditions Fewer Conditions

Pressure 29.78 in
Visibility 8.0 miles
Clouds Clear
Heat Index 92 °F
Dew Point 72 °F
Humidity 63%
Rainfall 0.00 in
Snow Depth Not available.
UV 0 out of 12
Pollen Not available.
Air Quality Not available.
Flu Activity Not available.
METAR MMLT 031247Z 00000KT 8SM SKC 29/19 A2978 RMK RTS

More Conditions Fewer Conditions

10-Day Weather Forecast

Almanac

Astronomy

Jun. 03, 2015 Rise Set
Actual Time
Civil Twilight
Nautical Twilight
Astronomical Twilight
Moon
Length of Visible Light
Length of Day
Tomorrow will be .
, % of the Moon is Illuminated

Today's Extremes

Country Highs Country Lows

Community

WunderPhotos

Upload Photos

1,826,229 photos uploaded!

WunderBlogs® & News

Nearby

Air Quality

  Air Quality AQ Index Pollutant
Not available.

Snow Depth

Station Depth Elevation

Earthquake Activity

City Distance Mag. Time & Date
Minimum magnitude displayed is 2.5.

Coastal Water Temperatures

Place Temperature

Stations

Nearby Weather Stations

Station Location Temp. Windchill Dew Point Humidity Wind Precip. Elev Updated Type